Flight Track Log - Related Links

Times and Time Zones

All times are in EDT time to prevent confusion due to time zone crossing. See the SWA1044 flight status page for this flight to view local times or setup timezone preferences in your user account.

Time Position Orientation Groundspeed Altitude Reporting Facility
EDT Latitude Longitude Course Direction KTS MPH feet Rate Location/Type
Thu 12:19:43 PM 29.9742 -90.2564 204° Southwest 139 160 1,500  Level Houston Center
Thu 12:20:29 PM 29.9483 -90.2656 197° South 155 178 2,900 2,656 Climbing Houston Center
Thu 12:20:44 PM 29.9286 -90.2703 192° South 171 197 4,200 3,194 Climbing Houston Center
Thu 12:21:31 PM 29.9000 -90.2803 197° South 168 193 6,200 3,218 Climbing Houston Center
Thu 12:22:34 PM 29.8567 -90.3381 229° Southwest 197 227 10,100 3,312 Climbing Houston Center
Thu 12:23:36 PM 29.8253 -90.3914 236° Southwest 201 231 13,100 2,226 Climbing Houston Center
Thu 12:24:38 PM 29.7892 -90.4467 233° Southwest 213 245 14,700 1,306 Climbing Houston Center
Thu 12:25:40 PM 29.7378 -90.5236 232° Southwest 296 341 15,800 1,790 Climbing Houston Center
Thu 12:26:42 PM 29.6828 -90.6089 233° Southwest 328 377 18,400 2,516 Climbing Houston Center
Thu 12:27:44 PM 29.6147 -90.7147 234° Southwest 341 392 21,000 2,226 Climbing Houston Center
Thu 12:28:46 PM 29.5672 -90.8150 241° Southwest 370 426 23,000 1,887 Climbing Houston Center
Thu 12:29:48 PM 29.6039 -90.9317 290° West 393 452 24,900 1,742 Climbing Houston Center
Thu 12:30:50 PM 29.6606 -91.0508 299° West 417 480 26,600 1,694 Climbing Houston Center
Thu 12:31:52 PM 29.7000 -91.1769 290° West 418 481 28,400 1,839 Climbing Houston Center
Thu 12:32:54 PM 29.7022 -91.3067 271° West 406 467 30,400 2,032 Climbing Houston Center
Thu 12:33:56 PM 29.6975 -91.4306 268° West 390 449 32,600 1,839 Climbing Houston Center
Thu 12:34:58 PM 29.7631 -91.5639 300° West 423 487 34,200 1,355 Climbing Houston Center
Thu 12:36:00 PM 29.8428 -91.6669 312° West 430 495 35,400 871 Climbing Houston Center
Thu 12:37:02 PM 29.9056 -91.7825 302° West 408 470 36,000 290 Climbing Houston Center
Thu 12:38:04 PM 29.9589 -91.8956 299° West 401 461 36,000  Level Houston Center
Thu 12:39:06 PM 30.0131 -92.0083 299° West 402 463 36,000  Level Houston Center
Thu 12:40:09 PM 30.0678 -92.1244 299° West 408 470 36,000  Level Houston Center
Thu 12:41:10 PM 30.1219 -92.2406 298° West 412 474 36,000  Level Houston Center
Thu 12:42:11 PM 30.1892 -92.3789 299° West 411 473 36,000  Level Houston Center
Thu 12:43:13 PM 30.2436 -92.4947 299° West 411 473 36,000 629 Level Houston Center
Thu 12:44:15 PM 30.2992 -92.6103 299° West 411 473 37,300 968 Climbing Houston Center
Thu 12:45:17 PM 30.3522 -92.7242 298° West 405 466 38,000 339 Climbing Houston Center
Thu 12:46:19 PM 30.4067 -92.8389 299° West 407 468 38,000  Level Houston Center
Thu 12:47:21 PM 30.4606 -92.9547 298° West 410 472 38,000  Level Houston Center
Thu 12:48:23 PM 30.5264 -93.0933 299° West 411 473 38,000  Level Houston Center
Thu 12:49:25 PM 30.5803 -93.2097 298° West 412 474 38,000  Level Houston Center
Thu 12:50:27 PM 30.6336 -93.3250 298° West 412 474 38,000  Level Houston Center
Thu 12:51:28 PM 30.6867 -93.4406 298° West 411 473 38,000  Level Houston Center
Thu 12:52:30 PM 30.7400 -93.5561 298° West 410 472 38,000  Level Houston Center
Thu 12:53:32 PM 30.8033 -93.6953 298° West 410 472 38,000 -48 Level Houston Center
Thu 12:54:34 PM 30.8572 -93.8103 299° West 408 470 37,900  Descending Houston Center
Thu 12:55:35 PM 30.9100 -93.9261 298° West 407 468 38,000 49 Climbing Houston Center
Thu 12:56:37 PM 30.9622 -94.0436 297° West 409 471 38,000  Level Houston Center
Thu 12:57:39 PM 31.0189 -94.1669 298° West 409 471 38,000  Level Houston Center
Thu 12:58:41 PM 31.0714 -94.2842 298° West 407 468 38,000  Level Houston Center
Thu 12:59:43 PM 31.1239 -94.4019 298° West 410 472 38,000  Level Houston Center
Thu 01:00:44 PM 31.1889 -94.5450 298° West 416 479 38,000  Level Houston Center
Thu 01:01:46 PM 31.2394 -94.6583 298° West 418 481 38,000  Level Houston Center
Thu 01:02:48 PM 31.2942 -94.7819 297° West 426 490 38,000  Level Houston Center
Thu 01:03:50 PM 31.3489 -94.9047 298° West 431 496 38,000  Level Houston Center
Thu 01:04:51 PM 31.4147 -95.0542 297° West 432 497 38,000  Level Houston Center
Thu 01:05:53 PM 31.4697 -95.1789 297° West 434 499 38,000  Level Houston Center
Thu 01:06:55 PM 31.5258 -95.3125 296° West 433 498 38,000  Level Fort Worth Center
Thu 01:07:55 PM 31.5842 -95.4356 299° West 421 484 38,000  Level Fort Worth Center
Thu 01:08:55 PM 31.6361 -95.5614 296° West 426 490 38,000  Level Fort Worth Center
Thu 01:09:55 PM 31.6922 -95.6897 297° West 426 490 38,000  Level Fort Worth Center
Thu 01:10:55 PM 31.7461 -95.8156 297° West 426 490 38,000  Level Fort Worth Center
Thu 01:11:55 PM 31.7978 -95.9394 296° West 426 490 38,000  Level Fort Worth Center
Thu 01:12:55 PM 31.8533 -96.0633 298° West 419 482 38,000  Level Fort Worth Center
Thu 01:13:55 PM 31.9089 -96.1922 297° West 433 498 38,000  Level Fort Worth Center
Thu 01:14:55 PM 31.9644 -96.3164 298° West 433 498 38,000  Level Fort Worth Center
Thu 01:15:55 PM 32.0156 -96.4431 295° West 433 498 38,000  Level Fort Worth Center
Thu 01:16:55 PM 32.0706 -96.5650 298° West 421 484 38,000  Level Fort Worth Center
Thu 01:17:55 PM 32.1258 -96.6969 296° West 427 491 38,000  Level Fort Worth Center
Thu 01:18:55 PM 32.1700 -96.8072 295° West 427 491 38,000  Level Fort Worth Center
Thu 01:19:55 PM 32.2228 -96.9344 296° West 421 484 38,000  Level Fort Worth Center
Thu 01:20:55 PM 32.2714 -97.0547 296° West 412 474 38,000  Level Fort Worth Center
Thu 01:21:55 PM 32.3281 -97.1922 296° West 428 493 38,000  Level Fort Worth Center
Thu 01:22:55 PM 32.3783 -97.3075 297° West 428 493 38,000  Level Fort Worth Center
Thu 01:23:55 PM 32.4325 -97.4431 295° West 422 486 38,000  Level Fort Worth Center
Thu 01:24:55 PM 32.4783 -97.5564 296° West 422 486 38,000  Level Fort Worth Center
Thu 01:25:55 PM 32.5325 -97.6894 296° West 422 486 38,000  Level Fort Worth Center
Thu 01:26:55 PM 32.5822 -97.8103 296° West 417 480 38,000  Level Fort Worth Center
Thu 01:27:55 PM 32.6319 -97.9264 297° West 404 465 38,000  Level Fort Worth Center
Thu 01:28:55 PM 32.6794 -98.0453 295° West 404 465 38,000  Level Fort Worth Center
Thu 01:29:55 PM 32.7289 -98.1642 296° West 404 465 38,000  Level Fort Worth Center
Thu 01:30:55 PM 32.7761 -98.2831 295° West 404 465 38,000  Level Fort Worth Center
Thu 01:31:55 PM 32.8192 -98.3922 295° West 404 465 38,000  Level Fort Worth Center
Thu 01:32:55 PM 32.8722 -98.5192 296° West 398 458 38,000  Level Fort Worth Center
Thu 01:33:55 PM 32.9233 -98.6386 297° West 398 458 38,000  Level Fort Worth Center
Thu 01:34:55 PM 32.9681 -98.7581 294° West 398 458 38,000  Level Fort Worth Center
Thu 01:35:55 PM 33.0169 -98.8778 296° West 403 464 38,000  Level Fort Worth Center
Thu 01:36:55 PM 33.0614 -98.9947 294° West 403 464 38,000  Level Fort Worth Center
Thu 01:37:55 PM 33.1078 -99.1122 294° West 398 458 38,000  Level Fort Worth Center
Thu 01:38:00 PM 33.1110 -99.1261 294° West  Level FlightAware Approximate
Thu 01:38:55 PM 33.1561 -99.2297 296° West 398 458 38,000  Level Fort Worth Center
Thu 01:39:55 PM 33.2003 -99.3475 294° West 398 458 38,000  Level Fort Worth Center
Thu 01:40:55 PM 33.2486 -99.4678 296° West 398 458 38,000  Level Fort Worth Center
Thu 01:41:55 PM 33.2925 -99.5856 294° West 398 458 38,000  Level Fort Worth Center
Thu 01:44:32 PM 33.4136 -99.8908 295° West 390 449 38,000  Level Albuquerque Center
Thu 01:44:55 PM 33.4319 -99.9422 293° West 398 458 38,000  Level Fort Worth Center
Thu 01:45:55 PM 33.4753 -100.0606 294° West 398 458 38,000  Level Fort Worth Center
Thu 01:46:55 PM 33.5208 -100.1792 295° West 393 452 38,000  Level Fort Worth Center
Thu 01:47:55 PM 33.5661 -100.2978 295° West 393 452 38,000  Level Fort Worth Center
Thu 01:48:55 PM 33.6094 -100.4139 294° West 388 447 38,000  Level Fort Worth Center
Thu 01:49:55 PM 33.6525 -100.5300 294° West 388 447 38,000  Level Fort Worth Center
Thu 01:50:56 PM 33.6975 -100.6442 295° West 381 438 38,000  Level Fort Worth Center
Thu 01:51:55 PM 33.7367 -100.7453 295° West 381 438 38,000  Level Fort Worth Center
Thu 01:52:55 PM 33.7833 -100.8722 294° West 381 438 38,000  Level Fort Worth Center
Thu 01:53:55 PM 33.8239 -100.9886 293° West 381 438 38,000  Level Fort Worth Center
Thu 01:54:55 PM 33.8683 -101.1031 295° West 376 433 38,000  Level Fort Worth Center
Thu 01:55:55 PM 33.9131 -101.2200 295° West 377 434 38,000  Level Fort Worth Center
Thu 01:56:55 PM 33.9533 -101.3319 293° West 377 434 38,000  Level Fort Worth Center
Thu 01:57:55 PM 33.9975 -101.4517 294° West 377 434 38,000  Level Fort Worth Center
Thu 01:58:55 PM 34.0378 -101.5639 293° West 382 440 38,000  Level Fort Worth Center
Thu 01:59:55 PM 34.0778 -101.6761 293° West 371 427 38,000  Level Fort Worth Center
Thu 02:00:55 PM 34.1197 -101.7911 294° West 371 427 38,000  Level Fort Worth Center
Thu 02:01:55 PM 34.1594 -101.9036 293° West 363 418 38,000  Level Fort Worth Center
Thu 02:02:56 PM 34.1992 -102.0136 294° West 363 418 38,000  Level Fort Worth Center
Thu 02:03:55 PM 34.2411 -102.1264 294° West 369 425 38,000  Level Fort Worth Center
Thu 02:04:10 PM 34.2508 -102.1497 297° West 363 418 38,000  Level Albuquerque Center
Thu 02:05:13 PM 34.2908 -102.2622 293° West 362 417 38,000  Level Albuquerque Center
Thu 02:06:15 PM 34.3308 -102.3761 293° West 365 420 38,000  Level Albuquerque Center
Thu 02:07:17 PM 34.3714 -102.4886 294° West 364 419 38,000  Level Albuquerque Center
Thu 02:08:19 PM 34.4128 -102.6031 294° West 368 423 38,000  Level Albuquerque Center
Thu 02:09:21 PM 34.4528 -102.7183 293° West 370 426 38,000  Level Albuquerque Center
Thu 02:10:23 PM 34.4964 -102.8453 293° West 373 429 38,000  Level Albuquerque Center
Thu 02:11:25 PM 34.5150 -102.9697 280° West 370 426 38,000  Level Albuquerque Center
Thu 02:12:27 PM 34.5383 -103.1125 281° West 368 423 38,000  Level Albuquerque Center
Thu 02:13:29 PM 34.5567 -103.2358 280° West 368 423 38,000  Level Albuquerque Center
Thu 02:14:31 PM 34.5756 -103.3583 281° West 367 422 38,000  Level Albuquerque Center
Thu 02:15:33 PM 34.5942 -103.4808 280° West 366 421 38,000  Level Albuquerque Center
Thu 02:16:35 PM 34.6117 -103.6047 280° West 368 423 38,000  Level Albuquerque Center
Thu 02:17:37 PM 34.6303 -103.7283 280° West 367 422 38,000  Level Albuquerque Center
Thu 02:18:39 PM 34.6483 -103.8511 280° West 367 422 38,000  Level Albuquerque Center
Thu 02:19:41 PM 34.6656 -103.9750 280° West 368 423 38,000  Level Albuquerque Center
Thu 02:20:43 PM 34.6867 -104.1192 280° West 367 422 38,000  Level Albuquerque Center
Thu 02:21:45 PM 34.7039 -104.2425 280° West 367 422 38,000  Level Albuquerque Center
Thu 02:22:47 PM 34.7225 -104.3658 280° West 366 421 38,000  Level Albuquerque Center
Thu 02:23:49 PM 34.7386 -104.4897 279° West 367 422 38,000  Level Albuquerque Center
Thu 02:24:51 PM 34.7572 -104.6136 280° West 367 422 38,000  Level Albuquerque Center
Thu 02:25:53 PM 34.7750 -104.7394 280° West 372 428 38,000  Level Albuquerque Center
Thu 02:26:55 PM 34.7914 -104.8642 279° West 370 426 38,000  Level Albuquerque Center
Thu 02:27:57 PM 34.8100 -104.9900 280° West 372 428 38,000  Level Albuquerque Center
Thu 02:28:59 PM 34.8269 -105.1175 279° West 376 433 38,000  Level Albuquerque Center
Thu 02:30:01 PM 34.8472 -105.2669 279° West 378 435 38,000  Level Albuquerque Center
Thu 02:31:03 PM 34.8658 -105.3956 280° West 381 438 38,000  Level Albuquerque Center
Thu 02:32:05 PM 34.8817 -105.5228 279° West 378 435 38,000  Level Albuquerque Center
Thu 02:33:06 PM 34.8989 -105.6486 280° West 375 432 38,000  Level Albuquerque Center
Thu 02:34:08 PM 34.9156 -105.7742 279° West 374 430 38,000  Level Albuquerque Center
Thu 02:35:10 PM 34.9303 -105.9017 278° West 372 428 38,000  Level Albuquerque Center
Thu 02:36:12 PM 34.9458 -106.0256 279° West 371 427 38,000  Level Albuquerque Center
Thu 02:37:14 PM 34.9614 -106.1478 279° West 368 423 38,000  Level Albuquerque Center
Thu 02:38:16 PM 34.9764 -106.2694 279° West 365 420 38,000  Level Albuquerque Center
Thu 02:39:18 PM 34.9919 -106.3936 279° West 369 425 38,000  Level Albuquerque Center
Thu 02:40:19 PM 35.0100 -106.5425 278° West 367 422 38,000  Level Albuquerque Center
Thu 02:41:21 PM 35.0239 -106.6647 278° West 377 434 38,000  Level Albuquerque Center
Thu 02:42:23 PM 35.0394 -106.8047 278° West 374 430 38,000  Level Albuquerque Center
Thu 02:43:25 PM 35.0669 -106.9169 287° West 362 417 38,000  Level Albuquerque Center
Thu 02:44:26 PM 35.0931 -107.0353 285° West 374 430 38,000  Level Albuquerque Center
Thu 02:45:28 PM 35.1231 -107.1733 285° West 378 435 38,000  Level Albuquerque Center
Thu 02:46:30 PM 35.1481 -107.2981 284° West 385 443 38,000  Level Albuquerque Center
Thu 02:47:32 PM 35.1650 -107.4228 279° West 375 432 38,000  Level Albuquerque Center
Thu 02:48:34 PM 35.1783 -107.5567 277° West 375 432 38,000  Level Albuquerque Center
Thu 02:49:35 PM 35.1919 -107.6961 277° West 372 428 38,000  Level Albuquerque Center
Thu 02:50:37 PM 35.2044 -107.8167 277° West 372 428 38,000  Level Albuquerque Center
Thu 02:51:39 PM 35.2156 -107.9414 276° West 381 438 38,000  Level Albuquerque Center
Thu 02:52:41 PM 35.2297 -108.0833 277° West 378 435 38,000  Level Albuquerque Center
Thu 02:53:43 PM 35.2419 -108.2047 277° West 376 433 38,000  Level Albuquerque Center
Thu 02:54:45 PM 35.2542 -108.3489 276° West 379 436 38,000  Level Albuquerque Center
Thu 02:55:46 PM 35.2661 -108.4708 277° West 377 434 38,000  Level Albuquerque Center
Thu 02:56:48 PM 35.2794 -108.6122 277° West 375 432 38,000  Level Albuquerque Center
Thu 02:57:50 PM 35.2903 -108.7339 276° West 374 430 38,000  Level Albuquerque Center
Thu 02:58:52 PM 35.3044 -108.8758 277° West 375 432 38,000  Level Albuquerque Center
Thu 02:59:54 PM 35.3144 -108.9975 276° West 375 432 38,000  Level Albuquerque Center
Thu 03:00:55 PM 35.3250 -109.1208 276° West 378 435 38,000  Level Albuquerque Center
Thu 03:01:57 PM 35.3378 -109.2661 276° West 381 438 38,000  Level Albuquerque Center
Thu 03:02:59 PM 35.3483 -109.3883 276° West 378 435 38,000  Level Albuquerque Center
Thu 03:04:01 PM 35.3594 -109.5311 275° West 377 434 38,000  Level Albuquerque Center
Thu 03:05:03 PM 35.3708 -109.6567 276° West 382 440 38,000  Level Albuquerque Center
Thu 03:06:04 PM 35.3803 -109.7803 275° West 381 438 38,000  Level Albuquerque Center
Thu 03:07:06 PM 35.3917 -109.9239 276° West 379 436 38,000  Level Albuquerque Center
Thu 03:08:08 PM 35.4003 -110.0469 275° West 379 436 38,000  Level Albuquerque Center
Thu 03:09:10 PM 35.4100 -110.1906 275° West 379 436 38,000  Level Albuquerque Center
Thu 03:10:12 PM 35.4178 -110.3144 274° West 380 437 38,000  Level Albuquerque Center
Thu 03:11:14 PM 35.4303 -110.4600 276° West 382 440 38,000  Level Albuquerque Center
Thu 03:12:16 PM 35.4394 -110.5836 275° West 382 440 38,000  Level Albuquerque Center
Thu 03:13:17 PM 35.4508 -110.7292 276° West 383 441 38,000  Level Albuquerque Center
Thu 03:14:19 PM 35.4589 -110.8547 275° West 385 443 38,000  Level Albuquerque Center
Thu 03:15:21 PM 35.4683 -110.9797 275° West 385 443 38,000  Level Albuquerque Center
Thu 03:16:23 PM 35.4781 -111.1289 275° West 390 449 38,000  Level Albuquerque Center
Thu 03:17:25 PM 35.4881 -111.2564 276° West 391 450 38,000 -677 Level Albuquerque Center
Thu 03:18:27 PM 35.4992 -111.4022 275° West 387 445 36,600 -1,839 Descending Albuquerque Center
Thu 03:19:29 PM 35.5069 -111.5375 274° West 386 444 34,200 -2,081 Descending Albuquerque Center
Thu 03:20:31 PM 35.5158 -111.6572 275° West 366 421 32,300 -1,839 Descending Albuquerque Center
Thu 03:21:33 PM 35.5225 -111.7714 274° West 346 398 30,400 -1,113 Descending Albuquerque Center
Thu 03:22:35 PM 35.5303 -111.8819 275° West 333 383 30,000 -195 Descending Albuquerque Center
Thu 03:23:36 PM 35.5372 -111.9975 274° West 337 388 30,000  Level Albuquerque Center
Thu 03:24:38 PM 35.5442 -112.1119 274° West 340 391 30,000  Level Albuquerque Center
Thu 03:25:26 PM 35.5508 -112.2050 275° West 341 392 30,000  Level Los Angeles Center
Thu 03:26:28 PM 35.5589 -112.3425 274° West 340 391 30,000  Level Los Angeles Center
Thu 03:27:30 PM 35.5653 -112.4561 274° West 338 389 30,000  Level Los Angeles Center
Thu 03:28:33 PM 35.5719 -112.5703 274° West 338 389 30,000  Level Los Angeles Center
Thu 03:29:35 PM 35.5794 -112.6850 275° West 336 387 30,000  Level Los Angeles Center
Thu 03:30:37 PM 35.5878 -112.8358 274° West 377 434 30,000  Level Los Angeles Center
Thu 03:31:39 PM 35.5947 -112.9700 274° West 380 437 30,000  Level Los Angeles Center
Thu 03:32:41 PM 35.6011 -113.0997 274° West 380 437 30,000 -387 Level Los Angeles Center
Thu 03:33:43 PM 35.6081 -113.2297 274° West 381 438 29,200 -919 Descending Los Angeles Center
Thu 03:34:45 PM 35.6153 -113.3639 274° West 373 429 28,100 -1,056 Descending Los Angeles Center
Thu 03:35:48 PM 35.6219 -113.4875 274° West 366 421 27,000 -1,536 Descending Los Angeles Center
Thu 03:36:50 PM 35.6319 -113.6058 276° West 354 407 24,900 -2,081 Descending Los Angeles Center
Thu 03:37:52 PM 35.6503 -113.7219 281° West 348 400 22,700 -2,081 Descending Los Angeles Center
Thu 03:38:54 PM 35.6669 -113.8400 280° West 353 406 20,600 -2,274 Descending Los Angeles Center
Thu 03:39:56 PM 35.6858 -113.9769 280° West 339 390 18,000 -2,226 Descending Los Angeles Center
Thu 03:40:58 PM 35.7008 -114.0886 279° West 334 384 16,000 -1,984 Descending Los Angeles Center
Thu 03:42:00 PM 35.7172 -114.2019 280° West 340 391 13,900 -1,776 Descending Los Angeles Center
Thu 03:43:03 PM 35.7328 -114.3164 280° West 340 391 12,300 -912 Descending Los Angeles Center
Thu 03:44:05 PM 35.7906 -114.4061 308° West 309 356 12,000 -153 Descending Los Angeles Center
Thu 03:45:01 PM 35.8633 -114.4389 340° North 299 344 12,000 -683 Level Los Angeles Center
Thu 03:46:08 PM 35.9506 -114.4811 339° North 294 338 10,600 -969 Descending Los Angeles Center
Thu 03:47:11 PM 36.0097 -114.5236 330° Northwest 289 333 9,900 -843 Descending Los Angeles Center
Thu 03:48:09 PM 36.0397 -114.6186 291° West 275 316 8,900 -968 Descending Los Angeles Center
Thu 03:49:15 PM 36.0658 -114.7003 292° West 276 318 7,900 -787 Descending Los Angeles Center
Thu 03:50:11 PM 36.0753 -114.7986 277° West 252 290 7,300 -1,026 Descending Los Angeles Center
Thu 03:51:12 PM 36.0739 -114.8814 269° West 242 278 5,900 -1,313 Descending Los Angeles Center
Thu 03:52:19 PM 36.0717 -114.9700 268° West 225 259 4,500 -1,172 Descending Los Angeles Center
Thu 03:53:20 PM 36.0739 -115.0386 272° West 188 216 3,400 -934 Descending Los Angeles Center
Thu 03:54:21 PM 36.0725 -115.0922 268° West 148 170 2,600 -703 Descending Los Angeles Center
Thu 03:55:28 PM 36.0747 -115.1367 274° West 157 181 1,900 -627 Descending Los Angeles Center
Thu 03:57:00 PM 36.0667 -115.1500 270° West  Level FlightAware Approximate

Login

Don't have an account? Register now (free) for customized features, flight alerts, and more!